sensor_id;sensor_type;location;lat;lon;timestamp;temperature;humidity
23385;DHT22;11865;45.394;10.978;2022-10-31T00:01:27;11.70;99.90
23385;DHT22;11865;45.394;10.978;2022-10-31T00:03:55;11.70;99.90
23385;DHT22;11865;45.394;10.978;2022-10-31T00:06:23;11.70;99.90
23385;DHT22;11865;45.394;10.978;2022-10-31T00:08:56;11.70;99.90
23385;DHT22;11865;45.394;10.978;2022-10-31T00:11:24;11.60;99.90
23385;DHT22;11865;45.394;10.978;2022-10-31T00:13:52;11.60;99.90
23385;DHT22;11865;45.394;10.978;2022-10-31T00:16:24;11.60;99.90
23385;DHT22;11865;45.394;10.978;2022-10-31T00:18:53;11.60;99.90
23385;DHT22;11865;45.394;10.978;2022-10-31T00:21:21;11.60;99.90
23385;DHT22;11865;45.394;10.978;2022-10-31T00:23:49;11.60;99.90
23385;DHT22;11865;45.394;10.978;2022-10-31T00:26:17;11.70;99.90
23385;DHT22;11865;45.394;10.978;2022-10-31T00:28:44;11.60;99.90
23385;DHT22;11865;45.394;10.978;2022-10-31T00:31:13;11.50;99.90
23385;DHT22;11865;45.394;10.978;2022-10-31T00:33:41;11.50;99.90
23385;DHT22;11865;45.394;10.978;2022-10-31T00:36:12;11.40;99.90
23385;DHT22;11865;45.394;10.978;2022-10-31T00:38:41;11.50;99.90
23385;DHT22;11865;45.394;10.978;2022-10-31T00:41:10;11.50;99.90
23385;DHT22;11865;45.394;10.978;2022-10-31T00:43:41;11.50;99.90
23385;DHT22;11865;45.394;10.978;2022-10-31T00:46:10;11.40;99.90
23385;DHT22;11865;45.394;10.978;2022-10-31T00:48:37;11.30;99.90
23385;DHT22;11865;45.394;10.978;2022-10-31T00:51:05;11.30;99.90
23385;DHT22;11865;45.394;10.978;2022-10-31T00:53:33;11.30;99.90
23385;DHT22;11865;45.394;10.978;2022-10-31T00:56:01;11.30;99.90
23385;DHT22;11865;45.394;10.978;2022-10-31T00:58:29;11.30;99.90
23385;DHT22;11865;45.394;10.978;2022-10-31T01:00:56;11.20;99.90
23385;DHT22;11865;45.394;10.978;2022-10-31T01:03:26;11.20;99.90
23385;DHT22;11865;45.394;10.978;2022-10-31T01:05:59;11.20;99.90
23385;DHT22;11865;45.394;10.978;2022-10-31T01:08:27;11.20;99.90
23385;DHT22;11865;45.394;10.978;2022-10-31T01:13:35;11.10;99.90
23385;DHT22;11865;45.394;10.978;2022-10-31T01:16:05;11.10;99.90
23385;DHT22;11865;45.394;10.978;2022-10-31T01:18:34;11.10;99.90
23385;DHT22;11865;45.394;10.978;2022-10-31T01:21:07;11.10;99.90
23385;DHT22;11865;45.394;10.978;2022-10-31T01:23:35;11.10;99.90
23385;DHT22;11865;45.394;10.978;2022-10-31T01:28:37;11.10;99.90
23385;DHT22;11865;45.394;10.978;2022-10-31T01:31:07;11.00;99.90
23385;DHT22;11865;45.394;10.978;2022-10-31T01:33:36;11.10;99.90
23385;DHT22;11865;45.394;10.978;2022-10-31T01:36:16;11.00;99.90
23385;DHT22;11865;45.394;10.978;2022-10-31T01:38:45;10.90;99.90
23385;DHT22;11865;45.394;10.978;2022-10-31T01:41:15;10.90;99.90
23385;DHT22;11865;45.394;10.978;2022-10-31T01:46:25;10.80;99.90
23385;DHT22;11865;45.394;10.978;2022-10-31T01:48:55;11.00;99.90
23385;DHT22;11865;45.394;10.978;2022-10-31T01:51:26;11.00;99.90
23385;DHT22;11865;45.394;10.978;2022-10-31T01:53:59;10.90;99.90
23385;DHT22;11865;45.394;10.978;2022-10-31T01:56:27;10.90;99.90
23385;DHT22;11865;45.394;10.978;2022-10-31T01:58:55;10.80;99.90
23385;DHT22;11865;45.394;10.978;2022-10-31T02:01:23;10.90;99.90
23385;DHT22;11865;45.394;10.978;2022-10-31T02:03:51;10.90;99.90
23385;DHT22;11865;45.394;10.978;2022-10-31T02:06:55;10.90;99.90
23385;DHT22;11865;45.394;10.978;2022-10-31T02:09:20;10.90;99.90
23385;DHT22;11865;45.394;10.978;2022-10-31T02:11:56;10.90;99.90
23385;DHT22;11865;45.394;10.978;2022-10-31T02:14:27;10.90;99.90
23385;DHT22;11865;45.394;10.978;2022-10-31T02:16:56;10.90;99.90
23385;DHT22;11865;45.394;10.978;2022-10-31T02:22:20;10.80;99.90
23385;DHT22;11865;45.394;10.978;2022-10-31T02:30:20;10.70;99.90
23385;DHT22;11865;45.394;10.978;2022-10-31T02:33:09;10.60;99.90
23385;DHT22;11865;45.394;10.978;2022-10-31T02:36:04;10.60;99.90
23385;DHT22;11865;45.394;10.978;2022-10-31T02:44:26;10.70;99.90
23385;DHT22;11865;45.394;10.978;2022-10-31T02:47:14;10.60;99.90
23385;DHT22;11865;45.394;10.978;2022-10-31T02:50:11;10.60;99.90
23385;DHT22;11865;45.394;10.978;2022-10-31T02:52:38;10.70;99.90
23385;DHT22;11865;45.394;10.978;2022-10-31T02:58:08;10.60;99.90
23385;DHT22;11865;45.394;10.978;2022-10-31T03:01:00;10.80;99.90
23385;DHT22;11865;45.394;10.978;2022-10-31T03:04:00;10.90;99.90
23385;DHT22;11865;45.394;10.978;2022-10-31T03:06:39;10.80;99.90
23385;DHT22;11865;45.394;10.978;2022-10-31T03:12:19;10.80;99.90
23385;DHT22;11865;45.394;10.978;2022-10-31T03:15:13;10.70;99.90
23385;DHT22;11865;45.394;10.978;2022-10-31T03:17:59;10.80;99.90
23385;DHT22;11865;45.394;10.978;2022-10-31T03:23:36;10.60;99.90
23385;DHT22;11865;45.394;10.978;2022-10-31T03:26:06;10.60;99.90
23385;DHT22;11865;45.394;10.978;2022-10-31T03:28:50;10.60;99.90
23385;DHT22;11865;45.394;10.978;2022-10-31T03:31:24;10.40;99.90
23385;DHT22;11865;45.394;10.978;2022-10-31T03:33:54;10.50;99.90
23385;DHT22;11865;45.394;10.978;2022-10-31T03:36:23;10.40;99.90
23385;DHT22;11865;45.394;10.978;2022-10-31T03:38:52;10.40;99.90
23385;DHT22;11865;45.394;10.978;2022-10-31T03:41:24;10.50;99.90
23385;DHT22;11865;45.394;10.978;2022-10-31T03:44:01;10.50;99.90
23385;DHT22;11865;45.394;10.978;2022-10-31T03:46:31;10.80;99.90
23385;DHT22;11865;45.394;10.978;2022-10-31T03:48:59;10.70;99.90
23385;DHT22;11865;45.394;10.978;2022-10-31T03:51:38;10.60;99.90
23385;DHT22;11865;45.394;10.978;2022-10-31T03:54:38;10.60;99.90
23385;DHT22;11865;45.394;10.978;2022-10-31T03:57:15;10.50;99.90
23385;DHT22;11865;45.394;10.978;2022-10-31T03:59:50;10.50;99.90
23385;DHT22;11865;45.394;10.978;2022-10-31T04:02:22;10.50;99.90
23385;DHT22;11865;45.394;10.978;2022-10-31T04:04:53;10.60;99.90
23385;DHT22;11865;45.394;10.978;2022-10-31T04:07:21;10.70;99.90
23385;DHT22;11865;45.394;10.978;2022-10-31T04:09:50;10.60;99.90
23385;DHT22;11865;45.394;10.978;2022-10-31T04:12:21;10.50;99.90
23385;DHT22;11865;45.394;10.978;2022-10-31T04:14:54;10.50;99.90
23385;DHT22;11865;45.394;10.978;2022-10-31T04:17:26;10.40;99.90
23385;DHT22;11865;45.394;10.978;2022-10-31T04:19:55;10.30;99.90
23385;DHT22;11865;45.394;10.978;2022-10-31T04:22:22;10.20;99.90
23385;DHT22;11865;45.394;10.978;2022-10-31T04:24:52;10.20;99.90
23385;DHT22;11865;45.394;10.978;2022-10-31T04:27:19;10.20;99.90
23385;DHT22;11865;45.394;10.978;2022-10-31T04:29:47;10.60;99.90
23385;DHT22;11865;45.394;10.978;2022-10-31T04:32:18;10.60;99.90
23385;DHT22;11865;45.394;10.978;2022-10-31T04:34:46;10.50;99.90
23385;DHT22;11865;45.394;10.978;2022-10-31T04:37:13;10.50;99.90
23385;DHT22;11865;45.394;10.978;2022-10-31T04:39:40;10.40;99.90
23385;DHT22;11865;45.394;10.978;2022-10-31T04:42:40;10.80;99.90
23385;DHT22;11865;45.394;10.978;2022-10-31T04:45:08;10.80;99.90
23385;DHT22;11865;45.394;10.978;2022-10-31T04:47:36;10.60;99.90
23385;DHT22;11865;45.394;10.978;2022-10-31T04:50:05;10.60;99.90
23385;DHT22;11865;45.394;10.978;2022-10-31T04:52:39;10.60;99.90
23385;DHT22;11865;45.394;10.978;2022-10-31T04:55:08;10.30;99.90
23385;DHT22;11865;45.394;10.978;2022-10-31T04:57:54;10.30;99.90
23385;DHT22;11865;45.394;10.978;2022-10-31T05:00:24;10.30;99.90
23385;DHT22;11865;45.394;10.978;2022-10-31T05:02:53;10.20;99.90
23385;DHT22;11865;45.394;10.978;2022-10-31T05:05:24;10.10;99.90
23385;DHT22;11865;45.394;10.978;2022-10-31T05:07:53;10.10;99.90
23385;DHT22;11865;45.394;10.978;2022-10-31T05:10:25;10.10;99.90
23385;DHT22;11865;45.394;10.978;2022-10-31T05:12:57;10.00;99.90
23385;DHT22;11865;45.394;10.978;2022-10-31T05:16:03;10.00;99.90
23385;DHT22;11865;45.394;10.978;2022-10-31T05:18:46;9.90;99.90
23385;DHT22;11865;45.394;10.978;2022-10-31T05:21:15;10.00;99.90
23385;DHT22;11865;45.394;10.978;2022-10-31T05:23:54;9.90;99.90
23385;DHT22;11865;45.394;10.978;2022-10-31T05:26:24;9.90;99.90
23385;DHT22;11865;45.394;10.978;2022-10-31T05:28:53;9.90;99.90
23385;DHT22;11865;45.394;10.978;2022-10-31T05:31:20;10.00;99.90
23385;DHT22;11865;45.394;10.978;2022-10-31T05:33:49;10.20;99.90
23385;DHT22;11865;45.394;10.978;2022-10-31T05:36:49;10.20;99.90
23385;DHT22;11865;45.394;10.978;2022-10-31T05:39:18;10.20;99.90
23385;DHT22;11865;45.394;10.978;2022-10-31T05:41:48;10.10;99.90
23385;DHT22;11865;45.394;10.978;2022-10-31T05:44:20;10.00;99.90
23385;DHT22;11865;45.394;10.978;2022-10-31T05:46:57;10.00;99.90
23385;DHT22;11865;45.394;10.978;2022-10-31T05:49:43;10.00;99.90
23385;DHT22;11865;45.394;10.978;2022-10-31T05:52:30;10.00;99.90
23385;DHT22;11865;45.394;10.978;2022-10-31T05:55:05;10.00;99.90
23385;DHT22;11865;45.394;10.978;2022-10-31T05:57:33;10.00;99.90
23385;DHT22;11865;45.394;10.978;2022-10-31T06:00:01;10.00;99.90
23385;DHT22;11865;45.394;10.978;2022-10-31T06:02:33;9.90;99.90
23385;DHT22;11865;45.394;10.978;2022-10-31T06:05:24;9.80;99.90
23385;DHT22;11865;45.394;10.978;2022-10-31T06:07:52;9.90;99.90
23385;DHT22;11865;45.394;10.978;2022-10-31T06:10:20;9.90;99.90
23385;DHT22;11865;45.394;10.978;2022-10-31T06:12:51;10.00;99.90
23385;DHT22;11865;45.394;10.978;2022-10-31T06:15:23;10.00;99.90
23385;DHT22;11865;45.394;10.978;2022-10-31T06:18:03;10.00;99.90
23385;DHT22;11865;45.394;10.978;2022-10-31T06:20:39;10.10;99.90
23385;DHT22;11865;45.394;10.978;2022-10-31T06:23:06;10.20;99.90
23385;DHT22;11865;45.394;10.978;2022-10-31T06:25:34;10.60;99.90
23385;DHT22;11865;45.394;10.978;2022-10-31T06:28:04;11.10;99.90
23385;DHT22;11865;45.394;10.978;2022-10-31T06:30:43;11.50;99.90
23385;DHT22;11865;45.394;10.978;2022-10-31T06:33:11;11.80;99.90
23385;DHT22;11865;45.394;10.978;2022-10-31T06:35:46;11.90;99.90
23385;DHT22;11865;45.394;10.978;2022-10-31T06:38:15;12.10;99.90
23385;DHT22;11865;45.394;10.978;2022-10-31T06:40:42;11.80;99.90
23385;DHT22;11865;45.394;10.978;2022-10-31T06:43:30;11.80;99.90
23385;DHT22;11865;45.394;10.978;2022-10-31T06:46:23;12.00;99.90
23385;DHT22;11865;45.394;10.978;2022-10-31T06:49:20;12.30;99.90
23385;DHT22;11865;45.394;10.978;2022-10-31T06:51:54;12.00;99.90
23385;DHT22;11865;45.394;10.978;2022-10-31T06:54:21;12.00;99.90
23385;DHT22;11865;45.394;10.978;2022-10-31T06:56:49;11.90;99.90
23385;DHT22;11865;45.394;10.978;2022-10-31T06:59:16;11.80;99.90
23385;DHT22;11865;45.394;10.978;2022-10-31T07:02:03;11.80;99.90
23385;DHT22;11865;45.394;10.978;2022-10-31T07:04:32;11.80;99.90
23385;DHT22;11865;45.394;10.978;2022-10-31T07:06:59;11.80;99.90
23385;DHT22;11865;45.394;10.978;2022-10-31T07:09:26;11.90;99.90
23385;DHT22;11865;45.394;10.978;2022-10-31T07:11:56;12.10;99.90
23385;DHT22;11865;45.394;10.978;2022-10-31T07:14:23;12.30;99.90
23385;DHT22;11865;45.394;10.978;2022-10-31T07:16:52;12.40;99.90
23385;DHT22;11865;45.394;10.978;2022-10-31T07:19:26;12.50;99.90
23385;DHT22;11865;45.394;10.978;2022-10-31T07:21:53;12.70;99.90
23385;DHT22;11865;45.394;10.978;2022-10-31T07:24:24;12.80;99.90
23385;DHT22;11865;45.394;10.978;2022-10-31T07:27:09;12.90;99.90
23385;DHT22;11865;45.394;10.978;2022-10-31T07:29:37;13.20;99.90
23385;DHT22;11865;45.394;10.978;2022-10-31T07:32:05;13.30;99.90
23385;DHT22;11865;45.394;10.978;2022-10-31T07:34:34;13.50;99.90
23385;DHT22;11865;45.394;10.978;2022-10-31T07:37:18;13.60;99.90
23385;DHT22;11865;45.394;10.978;2022-10-31T07:39:46;13.60;99.90
23385;DHT22;11865;45.394;10.978;2022-10-31T07:42:13;13.70;99.90
23385;DHT22;11865;45.394;10.978;2022-10-31T07:44:44;13.80;99.90
23385;DHT22;11865;45.394;10.978;2022-10-31T07:47:37;14.00;99.90
23385;DHT22;11865;45.394;10.978;2022-10-31T07:50:09;14.10;99.90
23385;DHT22;11865;45.394;10.978;2022-10-31T07:53:09;14.20;99.90
23385;DHT22;11865;45.394;10.978;2022-10-31T07:55:54;14.30;99.90
23385;DHT22;11865;45.394;10.978;2022-10-31T07:58:28;14.60;99.90
23385;DHT22;11865;45.394;10.978;2022-10-31T08:00:58;14.80;99.90
23385;DHT22;11865;45.394;10.978;2022-10-31T08:03:35;15.10;99.90
23385;DHT22;11865;45.394;10.978;2022-10-31T08:06:05;15.40;99.90
23385;DHT22;11865;45.394;10.978;2022-10-31T08:08:55;15.40;99.90
23385;DHT22;11865;45.394;10.978;2022-10-31T08:11:23;15.40;99.90
23385;DHT22;11865;45.394;10.978;2022-10-31T08:13:50;15.40;99.90
23385;DHT22;11865;45.394;10.978;2022-10-31T08:16:18;15.70;99.90
23385;DHT22;11865;45.394;10.978;2022-10-31T08:18:53;15.90;99.90
23385;DHT22;11865;45.394;10.978;2022-10-31T08:21:23;16.00;99.90
23385;DHT22;11865;45.394;10.978;2022-10-31T08:23:50;16.20;99.90
23385;DHT22;11865;45.394;10.978;2022-10-31T08:26:20;16.40;99.90
23385;DHT22;11865;45.394;10.978;2022-10-31T08:28:50;16.50;99.90
23385;DHT22;11865;45.394;10.978;2022-10-31T08:31:20;16.60;99.90
23385;DHT22;11865;45.394;10.978;2022-10-31T08:33:48;16.60;99.90
23385;DHT22;11865;45.394;10.978;2022-10-31T08:36:19;16.60;99.90
23385;DHT22;11865;45.394;10.978;2022-10-31T08:39:10;16.60;99.90
23385;DHT22;11865;45.394;10.978;2022-10-31T08:41:38;16.50;99.90
23385;DHT22;11865;45.394;10.978;2022-10-31T08:44:10;16.60;99.90
23385;DHT22;11865;45.394;10.978;2022-10-31T08:46:37;16.60;99.90
23385;DHT22;11865;45.394;10.978;2022-10-31T08:49:05;16.80;99.90
23385;DHT22;11865;45.394;10.978;2022-10-31T08:51:33;16.80;99.90
23385;DHT22;11865;45.394;10.978;2022-10-31T08:54:00;16.90;99.90
23385;DHT22;11865;45.394;10.978;2022-10-31T08:56:46;16.90;99.90
23385;DHT22;11865;45.394;10.978;2022-10-31T08:59:28;17.20;99.90
23385;DHT22;11865;45.394;10.978;2022-10-31T09:02:16;17.30;99.90
23385;DHT22;11865;45.394;10.978;2022-10-31T09:04:44;17.30;99.90
23385;DHT22;11865;45.394;10.978;2022-10-31T09:07:11;17.40;99.90
23385;DHT22;11865;45.394;10.978;2022-10-31T09:09:47;17.40;99.90
23385;DHT22;11865;45.394;10.978;2022-10-31T09:12:16;17.40;99.90
23385;DHT22;11865;45.394;10.978;2022-10-31T09:15:02;17.60;99.90
23385;DHT22;11865;45.394;10.978;2022-10-31T09:17:36;18.00;99.90
23385;DHT22;11865;45.394;10.978;2022-10-31T09:20:22;18.10;99.90
23385;DHT22;11865;45.394;10.978;2022-10-31T09:23:02;18.40;99.90
23385;DHT22;11865;45.394;10.978;2022-10-31T09:25:32;18.40;99.90
23385;DHT22;11865;45.394;10.978;2022-10-31T09:28:20;18.50;99.90
23385;DHT22;11865;45.394;10.978;2022-10-31T09:30:52;18.60;99.90
23385;DHT22;11865;45.394;10.978;2022-10-31T09:33:40;18.60;99.90
23385;DHT22;11865;45.394;10.978;2022-10-31T09:36:27;18.60;99.90
23385;DHT22;11865;45.394;10.978;2022-10-31T09:38:55;18.70;99.90
23385;DHT22;11865;45.394;10.978;2022-10-31T09:41:32;18.70;99.90
23385;DHT22;11865;45.394;10.978;2022-10-31T09:44:12;18.80;99.90
23385;DHT22;11865;45.394;10.978;2022-10-31T09:47:21;18.80;99.90
23385;DHT22;11865;45.394;10.978;2022-10-31T09:50:45;19.00;99.90
23385;DHT22;11865;45.394;10.978;2022-10-31T09:53:50;19.20;99.90
23385;DHT22;11865;45.394;10.978;2022-10-31T09:56:22;19.00;99.90
23385;DHT22;11865;45.394;10.978;2022-10-31T09:58:57;19.10;99.90
23385;DHT22;11865;45.394;10.978;2022-10-31T10:13:52;19.20;99.90
23385;DHT22;11865;45.394;10.978;2022-10-31T10:17:34;19.40;99.90
23385;DHT22;11865;45.394;10.978;2022-10-31T10:25:28;19.90;99.90
23385;DHT22;11865;45.394;10.978;2022-10-31T10:30:36;20.10;99.90
23385;DHT22;11865;45.394;10.978;2022-10-31T10:33:13;20.00;99.90
23385;DHT22;11865;45.394;10.978;2022-10-31T10:35:52;20.00;99.90
23385;DHT22;11865;45.394;10.978;2022-10-31T10:38:28;19.90;99.90
23385;DHT22;11865;45.394;10.978;2022-10-31T10:40:59;20.00;99.90
23385;DHT22;11865;45.394;10.978;2022-10-31T10:43:38;20.00;99.90
23385;DHT22;11865;45.394;10.978;2022-10-31T10:49:22;20.10;99.90
23385;DHT22;11865;45.394;10.978;2022-10-31T10:51:58;20.30;99.90
23385;DHT22;11865;45.394;10.978;2022-10-31T10:55:29;20.40;99.90
23385;DHT22;11865;45.394;10.978;2022-10-31T10:58:07;20.30;99.90
23385;DHT22;11865;45.394;10.978;2022-10-31T11:03:08;20.40;99.90
23385;DHT22;11865;45.394;10.978;2022-10-31T11:05:46;20.50;99.90
23385;DHT22;11865;45.394;10.978;2022-10-31T11:08:33;20.40;99.90
23385;DHT22;11865;45.394;10.978;2022-10-31T11:11:29;20.40;99.90
23385;DHT22;11865;45.394;10.978;2022-10-31T11:14:00;20.60;99.90
23385;DHT22;11865;45.394;10.978;2022-10-31T11:16:36;20.90;99.90
23385;DHT22;11865;45.394;10.978;2022-10-31T11:19:35;20.90;99.90
23385;DHT22;11865;45.394;10.978;2022-10-31T11:22:07;20.90;99.90
23385;DHT22;11865;45.394;10.978;2022-10-31T11:24:40;20.80;99.90
23385;DHT22;11865;45.394;10.978;2022-10-31T11:27:22;20.90;99.90
23385;DHT22;11865;45.394;10.978;2022-10-31T11:29:50;21.00;99.70
23385;DHT22;11865;45.394;10.978;2022-10-31T11:32:26;21.00;99.90
23385;DHT22;11865;45.394;10.978;2022-10-31T11:34:57;21.00;99.90
23385;DHT22;11865;45.394;10.978;2022-10-31T11:37:29;21.20;99.50
23385;DHT22;11865;45.394;10.978;2022-10-31T11:39:59;21.40;99.50
23385;DHT22;11865;45.394;10.978;2022-10-31T11:42:30;21.40;99.30
23385;DHT22;11865;45.394;10.978;2022-10-31T11:45:12;21.40;98.60
23385;DHT22;11865;45.394;10.978;2022-10-31T11:47:47;21.30;98.70
23385;DHT22;11865;45.394;10.978;2022-10-31T11:50:21;21.40;98.90
23385;DHT22;11865;45.394;10.978;2022-10-31T11:52:50;21.40;98.90
23385;DHT22;11865;45.394;10.978;2022-10-31T11:55:35;21.40;98.90
23385;DHT22;11865;45.394;10.978;2022-10-31T11:58:04;21.30;99.40
23385;DHT22;11865;45.394;10.978;2022-10-31T12:00:35;21.30;98.90
23385;DHT22;11865;45.394;10.978;2022-10-31T12:03:23;21.40;98.10
23385;DHT22;11865;45.394;10.978;2022-10-31T12:06:02;21.50;97.60
23385;DHT22;11865;45.394;10.978;2022-10-31T12:08:31;21.70;97.80
23385;DHT22;11865;45.394;10.978;2022-10-31T12:14:03;21.70;98.40
23385;DHT22;11865;45.394;10.978;2022-10-31T12:17:13;21.70;97.90
23385;DHT22;11865;45.394;10.978;2022-10-31T12:33:50;21.80;97.60
23385;DHT22;11865;45.394;10.978;2022-10-31T12:47:48;22.00;95.70
23385;DHT22;11865;45.394;10.978;2022-10-31T12:50:25;21.90;96.10
23385;DHT22;11865;45.394;10.978;2022-10-31T12:53:00;21.80;96.70
23385;DHT22;11865;45.394;10.978;2022-10-31T12:58:32;21.90;97.00
23385;DHT22;11865;45.394;10.978;2022-10-31T13:01:34;21.80;96.90
23385;DHT22;11865;45.394;10.978;2022-10-31T13:04:16;21.80;97.10
23385;DHT22;11865;45.394;10.978;2022-10-31T13:06:53;21.70;97.40
23385;DHT22;11865;45.394;10.978;2022-10-31T13:09:27;21.60;97.30
23385;DHT22;11865;45.394;10.978;2022-10-31T13:12:01;21.70;97.10
23385;DHT22;11865;45.394;10.978;2022-10-31T13:14:33;21.70;96.70
23385;DHT22;11865;45.394;10.978;2022-10-31T13:17:01;21.70;96.50
23385;DHT22;11865;45.394;10.978;2022-10-31T13:19:36;21.70;97.10
23385;DHT22;11865;45.394;10.978;2022-10-31T13:22:34;21.70;96.70
23385;DHT22;11865;45.394;10.978;2022-10-31T13:27:47;21.80;96.70
23385;DHT22;11865;45.394;10.978;2022-10-31T13:30:21;21.80;96.70
23385;DHT22;11865;45.394;10.978;2022-10-31T13:36:03;21.80;96.80
23385;DHT22;11865;45.394;10.978;2022-10-31T13:42:14;22.10;96.30
23385;DHT22;11865;45.394;10.978;2022-10-31T13:44:42;22.00;95.70
23385;DHT22;11865;45.394;10.978;2022-10-31T13:47:28;22.00;96.00
23385;DHT22;11865;45.394;10.978;2022-10-31T13:50:28;22.10;96.30
23385;DHT22;11865;45.394;10.978;2022-10-31T13:58:36;22.10;95.70
23385;DHT22;11865;45.394;10.978;2022-10-31T14:03:39;22.00;96.30
23385;DHT22;11865;45.394;10.978;2022-10-31T14:06:52;21.90;96.20
23385;DHT22;11865;45.394;10.978;2022-10-31T14:09:36;22.00;95.60
23385;DHT22;11865;45.394;10.978;2022-10-31T14:12:41;22.10;95.30
23385;DHT22;11865;45.394;10.978;2022-10-31T14:15:19;22.00;95.70
23385;DHT22;11865;45.394;10.978;2022-10-31T14:17:57;21.90;96.00
23385;DHT22;11865;45.394;10.978;2022-10-31T14:20:37;21.80;95.80
23385;DHT22;11865;45.394;10.978;2022-10-31T14:23:35;21.60;96.40
23385;DHT22;11865;45.394;10.978;2022-10-31T14:28:35;21.50;96.10
23385;DHT22;11865;45.394;10.978;2022-10-31T14:31:44;21.50;95.90
23385;DHT22;11865;45.394;10.978;2022-10-31T14:34:34;21.60;95.80
23385;DHT22;11865;45.394;10.978;2022-10-31T14:40:07;21.50;96.20
23385;DHT22;11865;45.394;10.978;2022-10-31T14:50:47;21.50;96.10
23385;DHT22;11865;45.394;10.978;2022-10-31T14:53:45;21.50;96.30
23385;DHT22;11865;45.394;10.978;2022-10-31T14:56:24;21.40;96.30
23385;DHT22;11865;45.394;10.978;2022-10-31T14:58:54;21.40;96.30
23385;DHT22;11865;45.394;10.978;2022-10-31T15:01:29;21.30;96.50
23385;DHT22;11865;45.394;10.978;2022-10-31T15:04:03;21.20;96.80
23385;DHT22;11865;45.394;10.978;2022-10-31T15:07:14;21.00;97.00
23385;DHT22;11865;45.394;10.978;2022-10-31T15:10:02;20.90;97.40
23385;DHT22;11865;45.394;10.978;2022-10-31T15:12:33;20.80;97.50
23385;DHT22;11865;45.394;10.978;2022-10-31T15:15:12;20.70;97.70
23385;DHT22;11865;45.394;10.978;2022-10-31T15:17:44;20.50;98.10
23385;DHT22;11865;45.394;10.978;2022-10-31T15:20:12;20.50;98.20
23385;DHT22;11865;45.394;10.978;2022-10-31T15:22:44;20.50;98.10
23385;DHT22;11865;45.394;10.978;2022-10-31T15:25:20;20.50;97.90
23385;DHT22;11865;45.394;10.978;2022-10-31T15:27:52;20.40;98.40
23385;DHT22;11865;45.394;10.978;2022-10-31T15:30:29;20.60;97.90
23385;DHT22;11865;45.394;10.978;2022-10-31T15:32:56;20.60;98.00
23385;DHT22;11865;45.394;10.978;2022-10-31T15:35:27;20.40;97.90
23385;DHT22;11865;45.394;10.978;2022-10-31T15:37:57;20.40;98.20
23385;DHT22;11865;45.394;10.978;2022-10-31T15:40:26;20.20;98.40
23385;DHT22;11865;45.394;10.978;2022-10-31T15:42:55;20.10;99.20
23385;DHT22;11865;45.394;10.978;2022-10-31T15:45:25;19.80;99.40
23385;DHT22;11865;45.394;10.978;2022-10-31T15:48:01;19.80;99.40
23385;DHT22;11865;45.394;10.978;2022-10-31T15:50:39;20.00;99.20
23385;DHT22;11865;45.394;10.978;2022-10-31T15:53:30;19.90;99.50
23385;DHT22;11865;45.394;10.978;2022-10-31T15:56:08;19.50;99.90
23385;DHT22;11865;45.394;10.978;2022-10-31T15:58:43;19.30;99.90
23385;DHT22;11865;45.394;10.978;2022-10-31T16:01:29;19.00;99.90
23385;DHT22;11865;45.394;10.978;2022-10-31T16:04:19;18.70;99.90
23385;DHT22;11865;45.394;10.978;2022-10-31T16:07:13;18.40;99.90
23385;DHT22;11865;45.394;10.978;2022-10-31T16:09:54;18.10;99.90
23385;DHT22;11865;45.394;10.978;2022-10-31T16:12:23;18.00;99.90
23385;DHT22;11865;45.394;10.978;2022-10-31T16:14:53;18.30;99.90
23385;DHT22;11865;45.394;10.978;2022-10-31T16:17:23;18.40;99.90
23385;DHT22;11865;45.394;10.978;2022-10-31T16:19:55;18.20;99.90
23385;DHT22;11865;45.394;10.978;2022-10-31T16:22:27;17.90;99.90
23385;DHT22;11865;45.394;10.978;2022-10-31T16:25:04;17.40;99.90
23385;DHT22;11865;45.394;10.978;2022-10-31T16:27:36;17.10;99.90
23385;DHT22;11865;45.394;10.978;2022-10-31T16:33:36;16.70;99.90
23385;DHT22;11865;45.394;10.978;2022-10-31T16:36:30;16.60;99.90
23385;DHT22;11865;45.394;10.978;2022-10-31T16:39:03;16.90;99.90
23385;DHT22;11865;45.394;10.978;2022-10-31T16:41:39;17.20;99.90
23385;DHT22;11865;45.394;10.978;2022-10-31T16:44:24;17.10;99.90
23385;DHT22;11865;45.394;10.978;2022-10-31T16:47:14;17.50;99.90
23385;DHT22;11865;45.394;10.978;2022-10-31T16:49:43;17.20;99.90
23385;DHT22;11865;45.394;10.978;2022-10-31T16:52:10;17.40;99.90
23385;DHT22;11865;45.394;10.978;2022-10-31T16:54:38;17.00;99.90
23385;DHT22;11865;45.394;10.978;2022-10-31T16:57:06;16.50;99.90
23385;DHT22;11865;45.394;10.978;2022-10-31T16:59:37;16.80;99.90
23385;DHT22;11865;45.394;10.978;2022-10-31T17:02:13;17.30;99.90
23385;DHT22;11865;45.394;10.978;2022-10-31T17:04:41;17.60;99.90
23385;DHT22;11865;45.394;10.978;2022-10-31T17:07:09;17.90;99.90
23385;DHT22;11865;45.394;10.978;2022-10-31T17:09:36;18.00;99.90
23385;DHT22;11865;45.394;10.978;2022-10-31T17:12:04;18.10;99.90
23385;DHT22;11865;45.394;10.978;2022-10-31T17:14:33;18.10;99.90
23385;DHT22;11865;45.394;10.978;2022-10-31T17:17:01;18.20;99.90
23385;DHT22;11865;45.394;10.978;2022-10-31T17:19:28;18.20;99.90
23385;DHT22;11865;45.394;10.978;2022-10-31T17:21:56;18.10;99.90
23385;DHT22;11865;45.394;10.978;2022-10-31T17:24:23;18.10;99.90
23385;DHT22;11865;45.394;10.978;2022-10-31T17:26:50;18.00;99.90
23385;DHT22;11865;45.394;10.978;2022-10-31T17:29:18;18.10;99.90
23385;DHT22;11865;45.394;10.978;2022-10-31T17:31:45;17.90;99.90
23385;DHT22;11865;45.394;10.978;2022-10-31T17:34:13;17.80;99.90
23385;DHT22;11865;45.394;10.978;2022-10-31T17:36:40;17.80;99.90
23385;DHT22;11865;45.394;10.978;2022-10-31T17:39:09;17.80;99.90
23385;DHT22;11865;45.394;10.978;2022-10-31T17:41:37;17.20;99.90
23385;DHT22;11865;45.394;10.978;2022-10-31T17:44:04;16.60;99.90
23385;DHT22;11865;45.394;10.978;2022-10-31T17:46:31;16.50;99.90
23385;DHT22;11865;45.394;10.978;2022-10-31T17:48:59;17.00;99.90
23385;DHT22;11865;45.394;10.978;2022-10-31T17:51:27;17.30;99.90
23385;DHT22;11865;45.394;10.978;2022-10-31T17:53:55;17.50;99.90
23385;DHT22;11865;45.394;10.978;2022-10-31T17:56:22;17.50;99.90
23385;DHT22;11865;45.394;10.978;2022-10-31T17:58:49;17.50;99.90
23385;DHT22;11865;45.394;10.978;2022-10-31T18:01:18;17.50;99.90
23385;DHT22;11865;45.394;10.978;2022-10-31T18:03:45;17.40;99.90
23385;DHT22;11865;45.394;10.978;2022-10-31T18:06:13;17.40;99.90
23385;DHT22;11865;45.394;10.978;2022-10-31T18:08:43;17.40;99.90
23385;DHT22;11865;45.394;10.978;2022-10-31T18:11:13;17.10;99.90